sensor_id;sensor_type;location;lat;lon;timestamp;P1;durP1;ratioP1;P2;durP2;ratioP2
8538;SDS011;4307;53.868;11.680;2024-03-08T00:02:34;12.10;;;6.63;;
8538;SDS011;4307;53.868;11.680;2024-03-08T00:05:01;10.93;;;6.23;;
8538;SDS011;4307;53.868;11.680;2024-03-08T00:07:28;12.07;;;6.20;;
8538;SDS011;4307;53.868;11.680;2024-03-08T00:09:54;11.23;;;6.47;;
8538;SDS011;4307;53.868;11.680;2024-03-08T00:12:22;10.97;;;6.67;;
8538;SDS011;4307;53.868;11.680;2024-03-08T00:14:50;11.93;;;7.43;;
8538;SDS011;4307;53.868;11.680;2024-03-08T00:17:17;11.50;;;7.30;;
8538;SDS011;4307;53.868;11.680;2024-03-08T00:19:44;11.80;;;6.50;;
8538;SDS011;4307;53.868;11.680;2024-03-08T00:22:10;11.10;;;7.27;;
8538;SDS011;4307;53.868;11.680;2024-03-08T00:24:37;13.00;;;7.10;;
8538;SDS011;4307;53.868;11.680;2024-03-08T00:27:04;16.23;;;7.83;;
8538;SDS011;4307;53.868;11.680;2024-03-08T00:29:32;12.13;;;7.33;;
8538;SDS011;4307;53.868;11.680;2024-03-08T00:31:59;12.33;;;7.53;;
8538;SDS011;4307;53.868;11.680;2024-03-08T00:34:26;12.40;;;7.87;;
8538;SDS011;4307;53.868;11.680;2024-03-08T00:36:52;15.37;;;7.77;;
8538;SDS011;4307;53.868;11.680;2024-03-08T00:39:19;13.97;;;7.03;;
8538;SDS011;4307;53.868;11.680;2024-03-08T00:41:46;15.03;;;8.07;;
8538;SDS011;4307;53.868;11.680;2024-03-08T00:44:13;16.30;;;8.87;;
8538;SDS011;4307;53.868;11.680;2024-03-08T00:46:41;18.20;;;8.33;;
8538;SDS011;4307;53.868;11.680;2024-03-08T00:49:08;17.77;;;8.33;;
8538;SDS011;4307;53.868;11.680;2024-03-08T00:51:35;14.20;;;7.90;;
8538;SDS011;4307;53.868;11.680;2024-03-08T00:54:01;22.30;;;9.20;;
8538;SDS011;4307;53.868;11.680;2024-03-08T00:56:28;12.07;;;8.07;;
8538;SDS011;4307;53.868;11.680;2024-03-08T00:58:55;14.10;;;8.20;;
8538;SDS011;4307;53.868;11.680;2024-03-08T01:01:21;15.30;;;8.33;;
8538;SDS011;4307;53.868;11.680;2024-03-08T01:03:51;17.47;;;8.80;;
8538;SDS011;4307;53.868;11.680;2024-03-08T01:06:17;15.23;;;8.60;;
8538;SDS011;4307;53.868;11.680;2024-03-08T01:08:44;11.73;;;7.87;;
8538;SDS011;4307;53.868;11.680;2024-03-08T01:11:12;16.13;;;9.27;;
8538;SDS011;4307;53.868;11.680;2024-03-08T01:13:39;13.43;;;7.77;;
8538;SDS011;4307;53.868;11.680;2024-03-08T01:16:06;17.93;;;8.93;;
8538;SDS011;4307;53.868;11.680;2024-03-08T01:18:33;15.93;;;8.60;;
8538;SDS011;4307;53.868;11.680;2024-03-08T01:21:01;15.73;;;8.43;;
8538;SDS011;4307;53.868;11.680;2024-03-08T01:23:27;12.00;;;7.03;;
8538;SDS011;4307;53.868;11.680;2024-03-08T01:25:54;14.00;;;7.73;;
8538;SDS011;4307;53.868;11.680;2024-03-08T01:28:22;20.33;;;9.50;;
8538;SDS011;4307;53.868;11.680;2024-03-08T01:30:49;19.40;;;9.77;;
8538;SDS011;4307;53.868;11.680;2024-03-08T01:33:20;14.50;;;8.83;;
8538;SDS011;4307;53.868;11.680;2024-03-08T01:35:47;17.20;;;8.77;;
8538;SDS011;4307;53.868;11.680;2024-03-08T01:38:15;20.63;;;8.57;;
8538;SDS011;4307;53.868;11.680;2024-03-08T01:40:42;21.57;;;7.93;;
8538;SDS011;4307;53.868;11.680;2024-03-08T01:43:18;16.77;;;8.27;;
8538;SDS011;4307;53.868;11.680;2024-03-08T01:45:46;16.30;;;8.70;;
8538;SDS011;4307;53.868;11.680;2024-03-08T01:48:13;14.27;;;8.07;;
8538;SDS011;4307;53.868;11.680;2024-03-08T01:50:40;18.10;;;8.07;;
8538;SDS011;4307;53.868;11.680;2024-03-08T01:53:07;24.00;;;8.40;;
8538;SDS011;4307;53.868;11.680;2024-03-08T01:55:38;21.47;;;8.83;;
8538;SDS011;4307;53.868;11.680;2024-03-08T01:58:05;17.70;;;8.30;;
8538;SDS011;4307;53.868;11.680;2024-03-08T02:00:32;17.27;;;7.77;;
8538;SDS011;4307;53.868;11.680;2024-03-08T02:03:00;17.73;;;8.43;;
8538;SDS011;4307;53.868;11.680;2024-03-08T02:05:27;21.07;;;9.40;;
8538;SDS011;4307;53.868;11.680;2024-03-08T02:07:54;16.67;;;8.80;;
8538;SDS011;4307;53.868;11.680;2024-03-08T02:10:22;23.80;;;9.37;;
8538;SDS011;4307;53.868;11.680;2024-03-08T02:12:50;15.27;;;8.77;;
8538;SDS011;4307;53.868;11.680;2024-03-08T02:15:17;18.53;;;8.83;;
8538;SDS011;4307;53.868;11.680;2024-03-08T02:17:44;17.13;;;8.37;;
8538;SDS011;4307;53.868;11.680;2024-03-08T02:20:11;20.20;;;9.50;;
8538;SDS011;4307;53.868;11.680;2024-03-08T02:22:39;22.43;;;9.13;;
8538;SDS011;4307;53.868;11.680;2024-03-08T02:25:06;19.80;;;9.83;;
8538;SDS011;4307;53.868;11.680;2024-03-08T02:27:35;25.67;;;7.13;;
8538;SDS011;4307;53.868;11.680;2024-03-08T02:30:02;20.93;;;9.47;;
8538;SDS011;4307;53.868;11.680;2024-03-08T02:32:30;29.43;;;10.30;;
8538;SDS011;4307;53.868;11.680;2024-03-08T02:34:57;16.13;;;9.57;;
8538;SDS011;4307;53.868;11.680;2024-03-08T02:37:25;18.27;;;9.43;;
8538;SDS011;4307;53.868;11.680;2024-03-08T02:39:54;19.80;;;9.53;;
8538;SDS011;4307;53.868;11.680;2024-03-08T02:42:21;22.17;;;8.03;;
8538;SDS011;4307;53.868;11.680;2024-03-08T02:44:48;19.27;;;10.73;;
8538;SDS011;4307;53.868;11.680;2024-03-08T02:47:14;19.53;;;8.67;;
8538;SDS011;4307;53.868;11.680;2024-03-08T02:49:41;19.03;;;10.33;;
8538;SDS011;4307;53.868;11.680;2024-03-08T02:52:07;19.30;;;8.77;;
8538;SDS011;4307;53.868;11.680;2024-03-08T02:54:34;20.87;;;9.67;;
8538;SDS011;4307;53.868;11.680;2024-03-08T02:57:03;20.63;;;11.00;;
8538;SDS011;4307;53.868;11.680;2024-03-08T02:59:32;24.03;;;10.20;;
8538;SDS011;4307;53.868;11.680;2024-03-08T03:01:58;20.80;;;8.10;;
8538;SDS011;4307;53.868;11.680;2024-03-08T03:04:25;21.43;;;9.83;;
8538;SDS011;4307;53.868;11.680;2024-03-08T03:06:52;21.00;;;10.37;;
8538;SDS011;4307;53.868;11.680;2024-03-08T03:09:19;18.80;;;10.70;;
8538;SDS011;4307;53.868;11.680;2024-03-08T03:11:48;23.20;;;11.57;;
8538;SDS011;4307;53.868;11.680;2024-03-08T03:14:16;23.43;;;9.40;;
8538;SDS011;4307;53.868;11.680;2024-03-08T03:16:44;21.20;;;10.33;;
8538;SDS011;4307;53.868;11.680;2024-03-08T03:19:10;25.97;;;10.07;;
8538;SDS011;4307;53.868;11.680;2024-03-08T03:21:37;25.53;;;10.23;;
8538;SDS011;4307;53.868;11.680;2024-03-08T03:24:04;25.30;;;9.30;;
8538;SDS011;4307;53.868;11.680;2024-03-08T03:26:35;29.77;;;5.30;;
8538;SDS011;4307;53.868;11.680;2024-03-08T03:29:03;27.07;;;9.53;;
8538;SDS011;4307;53.868;11.680;2024-03-08T03:31:32;23.30;;;9.90;;
8538;SDS011;4307;53.868;11.680;2024-03-08T03:33:59;29.20;;;9.00;;
8538;SDS011;4307;53.868;11.680;2024-03-08T03:36:27;22.67;;;8.00;;
8538;SDS011;4307;53.868;11.680;2024-03-08T03:38:54;30.43;;;8.57;;
8538;SDS011;4307;53.868;11.680;2024-03-08T03:41:32;24.00;;;8.60;;
8538;SDS011;4307;53.868;11.680;2024-03-08T03:43:59;28.63;;;9.77;;
8538;SDS011;4307;53.868;11.680;2024-03-08T03:46:26;26.27;;;10.33;;
8538;SDS011;4307;53.868;11.680;2024-03-08T03:48:54;26.90;;;8.70;;
8538;SDS011;4307;53.868;11.680;2024-03-08T03:51:21;18.07;;;8.57;;
8538;SDS011;4307;53.868;11.680;2024-03-08T03:53:48;23.03;;;10.27;;
8538;SDS011;4307;53.868;11.680;2024-03-08T03:56:14;18.67;;;9.60;;
8538;SDS011;4307;53.868;11.680;2024-03-08T03:58:41;20.10;;;10.90;;
8538;SDS011;4307;53.868;11.680;2024-03-08T04:01:08;17.30;;;8.27;;
8538;SDS011;4307;53.868;11.680;2024-03-08T04:03:35;28.10;;;9.40;;
8538;SDS011;4307;53.868;11.680;2024-03-08T04:06:04;18.47;;;9.10;;
8538;SDS011;4307;53.868;11.680;2024-03-08T04:08:30;21.33;;;10.93;;
8538;SDS011;4307;53.868;11.680;2024-03-08T04:10:59;19.57;;;10.30;;
8538;SDS011;4307;53.868;11.680;2024-03-08T04:13:26;11.87;;;5.80;;
8538;SDS011;4307;53.868;11.680;2024-03-08T04:15:52;19.80;;;8.13;;
8538;SDS011;4307;53.868;11.680;2024-03-08T04:18:19;19.37;;;8.43;;
8538;SDS011;4307;53.868;11.680;2024-03-08T04:20:46;23.47;;;9.43;;
8538;SDS011;4307;53.868;11.680;2024-03-08T04:23:14;33.33;;;11.17;;
8538;SDS011;4307;53.868;11.680;2024-03-08T04:25:42;14.73;;;7.87;;
8538;SDS011;4307;53.868;11.680;2024-03-08T04:28:09;18.73;;;8.47;;
8538;SDS011;4307;53.868;11.680;2024-03-08T04:30:36;21.67;;;10.23;;
8538;SDS011;4307;53.868;11.680;2024-03-08T04:33:04;29.77;;;10.03;;
8538;SDS011;4307;53.868;11.680;2024-03-08T04:35:31;18.10;;;9.77;;
8538;SDS011;4307;53.868;11.680;2024-03-08T04:37:58;34.37;;;9.60;;
8538;SDS011;4307;53.868;11.680;2024-03-08T04:40:26;26.07;;;10.57;;
8538;SDS011;4307;53.868;11.680;2024-03-08T04:42:53;18.30;;;9.10;;
8538;SDS011;4307;53.868;11.680;2024-03-08T04:45:20;20.93;;;10.43;;
8538;SDS011;4307;53.868;11.680;2024-03-08T04:47:46;32.57;;;10.63;;
8538;SDS011;4307;53.868;11.680;2024-03-08T04:50:13;25.47;;;10.27;;
8538;SDS011;4307;53.868;11.680;2024-03-08T04:52:40;24.20;;;9.40;;
8538;SDS011;4307;53.868;11.680;2024-03-08T04:55:06;26.40;;;9.73;;
8538;SDS011;4307;53.868;11.680;2024-03-08T04:57:35;26.33;;;10.23;;
8538;SDS011;4307;53.868;11.680;2024-03-08T05:00:02;24.87;;;12.33;;
8538;SDS011;4307;53.868;11.680;2024-03-08T05:02:34;23.20;;;10.20;;
8538;SDS011;4307;53.868;11.680;2024-03-08T05:05:01;20.37;;;9.90;;
8538;SDS011;4307;53.868;11.680;2024-03-08T05:07:31;25.00;;;11.27;;
8538;SDS011;4307;53.868;11.680;2024-03-08T05:09:57;25.70;;;10.07;;
8538;SDS011;4307;53.868;11.680;2024-03-08T05:12:24;14.10;;;6.37;;
8538;SDS011;4307;53.868;11.680;2024-03-08T05:14:52;23.00;;;11.23;;
8538;SDS011;4307;53.868;11.680;2024-03-08T05:17:19;22.77;;;8.60;;
8538;SDS011;4307;53.868;11.680;2024-03-08T05:19:49;22.90;;;10.77;;
8538;SDS011;4307;53.868;11.680;2024-03-08T05:22:15;23.27;;;10.17;;
8538;SDS011;4307;53.868;11.680;2024-03-08T05:24:42;20.13;;;9.60;;
8538;SDS011;4307;53.868;11.680;2024-03-08T05:27:09;20.27;;;9.40;;
8538;SDS011;4307;53.868;11.680;2024-03-08T05:29:36;28.83;;;12.60;;
8538;SDS011;4307;53.868;11.680;2024-03-08T05:32:04;48.70;;;14.27;;
8538;SDS011;4307;53.868;11.680;2024-03-08T05:34:32;46.47;;;12.20;;
8538;SDS011;4307;53.868;11.680;2024-03-08T05:36:58;34.60;;;13.97;;
8538;SDS011;4307;53.868;11.680;2024-03-08T05:39:25;32.30;;;14.63;;
8538;SDS011;4307;53.868;11.680;2024-03-08T05:41:51;37.47;;;13.10;;
8538;SDS011;4307;53.868;11.680;2024-03-08T05:44:20;29.27;;;14.43;;
8538;SDS011;4307;53.868;11.680;2024-03-08T05:46:46;35.97;;;15.50;;
8538;SDS011;4307;53.868;11.680;2024-03-08T05:49:14;37.23;;;16.70;;
8538;SDS011;4307;53.868;11.680;2024-03-08T05:51:41;26.10;;;11.93;;
8538;SDS011;4307;53.868;11.680;2024-03-08T05:54:08;26.47;;;9.90;;
8538;SDS011;4307;53.868;11.680;2024-03-08T05:56:36;22.83;;;9.80;;
8538;SDS011;4307;53.868;11.680;2024-03-08T05:59:03;26.60;;;9.60;;
8538;SDS011;4307;53.868;11.680;2024-03-08T06:01:30;29.73;;;11.13;;
8538;SDS011;4307;53.868;11.680;2024-03-08T06:03:58;23.47;;;10.83;;
8538;SDS011;4307;53.868;11.680;2024-03-08T06:06:26;28.33;;;10.30;;
8538;SDS011;4307;53.868;11.680;2024-03-08T06:08:52;25.80;;;10.93;;
8538;SDS011;4307;53.868;11.680;2024-03-08T06:11:21;17.77;;;8.13;;
8538;SDS011;4307;53.868;11.680;2024-03-08T06:13:48;22.53;;;10.17;;
8538;SDS011;4307;53.868;11.680;2024-03-08T06:16:15;39.77;;;8.63;;
8538;SDS011;4307;53.868;11.680;2024-03-08T06:18:42;18.70;;;9.03;;
8538;SDS011;4307;53.868;11.680;2024-03-08T06:21:08;26.43;;;8.30;;
8538;SDS011;4307;53.868;11.680;2024-03-08T06:23:38;37.30;;;10.60;;
8538;SDS011;4307;53.868;11.680;2024-03-08T06:26:04;24.60;;;9.13;;
8538;SDS011;4307;53.868;11.680;2024-03-08T06:28:31;26.70;;;10.03;;
8538;SDS011;4307;53.868;11.680;2024-03-08T06:30:59;31.83;;;10.90;;
8538;SDS011;4307;53.868;11.680;2024-03-08T06:33:26;29.20;;;7.03;;
8538;SDS011;4307;53.868;11.680;2024-03-08T06:35:53;21.63;;;10.17;;
8538;SDS011;4307;53.868;11.680;2024-03-08T06:38:22;20.20;;;10.20;;
8538;SDS011;4307;53.868;11.680;2024-03-08T06:40:50;23.10;;;10.73;;
8538;SDS011;4307;53.868;11.680;2024-03-08T06:43:17;21.80;;;10.63;;
8538;SDS011;4307;53.868;11.680;2024-03-08T06:45:43;20.67;;;10.37;;
8538;SDS011;4307;53.868;11.680;2024-03-08T06:48:13;22.17;;;10.53;;
8538;SDS011;4307;53.868;11.680;2024-03-08T06:50:40;33.37;;;10.40;;
8538;SDS011;4307;53.868;11.680;2024-03-08T06:53:07;20.53;;;9.87;;
8538;SDS011;4307;53.868;11.680;2024-03-08T06:55:33;13.27;;;7.23;;
8538;SDS011;4307;53.868;11.680;2024-03-08T06:58:01;23.47;;;9.60;;
8538;SDS011;4307;53.868;11.680;2024-03-08T07:00:28;33.17;;;13.53;;
8538;SDS011;4307;53.868;11.680;2024-03-08T07:02:55;28.63;;;13.17;;
8538;SDS011;4307;53.868;11.680;2024-03-08T07:05:25;26.00;;;14.50;;
8538;SDS011;4307;53.868;11.680;2024-03-08T07:07:52;28.53;;;14.07;;
8538;SDS011;4307;53.868;11.680;2024-03-08T07:10:19;24.10;;;13.00;;
8538;SDS011;4307;53.868;11.680;2024-03-08T07:12:48;25.53;;;11.60;;
8538;SDS011;4307;53.868;11.680;2024-03-08T07:15:17;21.07;;;11.17;;
8538;SDS011;4307;53.868;11.680;2024-03-08T07:17:44;21.30;;;11.53;;
8538;SDS011;4307;53.868;11.680;2024-03-08T07:20:11;22.07;;;8.77;;
8538;SDS011;4307;53.868;11.680;2024-03-08T07:22:40;18.93;;;10.63;;
8538;SDS011;4307;53.868;11.680;2024-03-08T07:25:07;23.40;;;12.07;;
8538;SDS011;4307;53.868;11.680;2024-03-08T07:27:45;23.10;;;12.63;;
8538;SDS011;4307;53.868;11.680;2024-03-08T07:30:12;24.87;;;12.60;;
8538;SDS011;4307;53.868;11.680;2024-03-08T07:33:00;26.67;;;13.50;;
8538;SDS011;4307;53.868;11.680;2024-03-08T07:35:27;21.20;;;11.03;;
8538;SDS011;4307;53.868;11.680;2024-03-08T07:37:54;28.57;;;12.53;;
8538;SDS011;4307;53.868;11.680;2024-03-08T07:40:20;23.90;;;11.90;;
8538;SDS011;4307;53.868;11.680;2024-03-08T07:42:48;22.63;;;12.50;;
8538;SDS011;4307;53.868;11.680;2024-03-08T07:45:15;26.00;;;13.50;;
8538;SDS011;4307;53.868;11.680;2024-03-08T07:47:42;23.97;;;12.40;;
8538;SDS011;4307;53.868;11.680;2024-03-08T07:50:10;27.17;;;12.90;;
8538;SDS011;4307;53.868;11.680;2024-03-08T07:52:40;27.40;;;13.83;;
8538;SDS011;4307;53.868;11.680;2024-03-08T07:55:07;24.60;;;11.93;;
8538;SDS011;4307;53.868;11.680;2024-03-08T07:57:35;25.43;;;13.20;;
8538;SDS011;4307;53.868;11.680;2024-03-08T08:00:03;37.83;;;18.53;;
8538;SDS011;4307;53.868;11.680;2024-03-08T08:02:32;38.10;;;18.17;;
8538;SDS011;4307;53.868;11.680;2024-03-08T08:04:59;29.43;;;16.50;;
8538;SDS011;4307;53.868;11.680;2024-03-08T08:07:27;28.47;;;13.73;;
8538;SDS011;4307;53.868;11.680;2024-03-08T08:09:54;26.73;;;13.67;;
8538;SDS011;4307;53.868;11.680;2024-03-08T08:12:20;29.27;;;14.37;;
8538;SDS011;4307;53.868;11.680;2024-03-08T08:14:47;28.10;;;14.43;;
8538;SDS011;4307;53.868;11.680;2024-03-08T08:17:13;31.23;;;15.20;;
8538;SDS011;4307;53.868;11.680;2024-03-08T08:19:40;34.27;;;15.90;;
8538;SDS011;4307;53.868;11.680;2024-03-08T08:22:08;35.30;;;19.17;;
8538;SDS011;4307;53.868;11.680;2024-03-08T08:24:36;35.60;;;17.17;;
8538;SDS011;4307;53.868;11.680;2024-03-08T08:27:03;33.20;;;16.93;;
8538;SDS011;4307;53.868;11.680;2024-03-08T08:29:30;34.07;;;15.47;;
8538;SDS011;4307;53.868;11.680;2024-03-08T08:31:58;34.33;;;16.80;;
8538;SDS011;4307;53.868;11.680;2024-03-08T08:34:25;32.60;;;15.77;;
8538;SDS011;4307;53.868;11.680;2024-03-08T08:36:52;33.30;;;15.77;;
8538;SDS011;4307;53.868;11.680;2024-03-08T08:39:19;36.13;;;16.40;;
8538;SDS011;4307;53.868;11.680;2024-03-08T08:41:49;40.57;;;17.53;;
8538;SDS011;4307;53.868;11.680;2024-03-08T08:44:15;36.53;;;17.30;;
8538;SDS011;4307;53.868;11.680;2024-03-08T08:46:42;39.73;;;17.87;;
8538;SDS011;4307;53.868;11.680;2024-03-08T08:49:09;32.43;;;16.40;;
8538;SDS011;4307;53.868;11.680;2024-03-08T08:51:39;41.63;;;18.03;;
8538;SDS011;4307;53.868;11.680;2024-03-08T08:54:06;38.77;;;18.50;;
8538;SDS011;4307;53.868;11.680;2024-03-08T08:56:32;35.47;;;17.33;;
8538;SDS011;4307;53.868;11.680;2024-03-08T08:59:01;32.33;;;14.57;;
8538;SDS011;4307;53.868;11.680;2024-03-08T09:01:28;29.60;;;15.37;;
8538;SDS011;4307;53.868;11.680;2024-03-08T09:03:55;27.77;;;14.23;;
8538;SDS011;4307;53.868;11.680;2024-03-08T09:06:22;31.03;;;16.23;;
8538;SDS011;4307;53.868;11.680;2024-03-08T09:08:50;29.07;;;11.43;;
8538;SDS011;4307;53.868;11.680;2024-03-08T09:11:17;32.53;;;16.60;;
8538;SDS011;4307;53.868;11.680;2024-03-08T09:13:45;35.97;;;16.70;;
8538;SDS011;4307;53.868;11.680;2024-03-08T09:16:13;35.00;;;16.80;;
8538;SDS011;4307;53.868;11.680;2024-03-08T09:18:40;30.83;;;15.87;;
8538;SDS011;4307;53.868;11.680;2024-03-08T09:21:07;26.70;;;13.77;;
8538;SDS011;4307;53.868;11.680;2024-03-08T09:23:34;31.57;;;15.40;;
8538;SDS011;4307;53.868;11.680;2024-03-08T09:26:01;30.07;;;15.23;;
8538;SDS011;4307;53.868;11.680;2024-03-08T09:28:29;22.77;;;11.97;;
8538;SDS011;4307;53.868;11.680;2024-03-08T09:30:55;27.10;;;15.20;;
8538;SDS011;4307;53.868;11.680;2024-03-08T09:33:25;29.90;;;15.20;;
8538;SDS011;4307;53.868;11.680;2024-03-08T09:35:53;27.90;;;14.13;;
8538;SDS011;4307;53.868;11.680;2024-03-08T09:38:22;33.50;;;15.77;;
8538;SDS011;4307;53.868;11.680;2024-03-08T09:40:49;28.20;;;15.17;;
8538;SDS011;4307;53.868;11.680;2024-03-08T09:43:16;23.87;;;13.57;;
8538;SDS011;4307;53.868;11.680;2024-03-08T09:45:43;36.60;;;17.83;;
8538;SDS011;4307;53.868;11.680;2024-03-08T09:48:14;32.27;;;15.60;;
8538;SDS011;4307;53.868;11.680;2024-03-08T09:50:45;35.67;;;17.33;;
8538;SDS011;4307;53.868;11.680;2024-03-08T09:53:13;27.93;;;15.23;;
8538;SDS011;4307;53.868;11.680;2024-03-08T09:55:40;32.27;;;16.13;;
8538;SDS011;4307;53.868;11.680;2024-03-08T09:58:10;29.63;;;16.07;;
8538;SDS011;4307;53.868;11.680;2024-03-08T10:00:53;28.97;;;14.67;;
8538;SDS011;4307;53.868;11.680;2024-03-08T10:03:19;26.13;;;14.47;;
8538;SDS011;4307;53.868;11.680;2024-03-08T10:05:48;28.87;;;16.23;;
8538;SDS011;4307;53.868;11.680;2024-03-08T10:08:16;32.83;;;15.07;;
8538;SDS011;4307;53.868;11.680;2024-03-08T10:10:42;31.87;;;16.47;;
8538;SDS011;4307;53.868;11.680;2024-03-08T10:13:09;28.50;;;15.30;;
8538;SDS011;4307;53.868;11.680;2024-03-08T10:15:37;29.07;;;15.43;;
8538;SDS011;4307;53.868;11.680;2024-03-08T10:18:05;23.00;;;14.20;;
8538;SDS011;4307;53.868;11.680;2024-03-08T10:20:32;29.13;;;14.97;;
8538;SDS011;4307;53.868;11.680;2024-03-08T10:23:00;25.97;;;15.13;;
8538;SDS011;4307;53.868;11.680;2024-03-08T10:25:30;28.00;;;14.70;;
8538;SDS011;4307;53.868;11.680;2024-03-08T10:27:56;34.67;;;17.63;;
8538;SDS011;4307;53.868;11.680;2024-03-08T10:30:23;29.83;;;16.23;;
8538;SDS011;4307;53.868;11.680;2024-03-08T10:32:50;28.77;;;15.30;;
8538;SDS011;4307;53.868;11.680;2024-03-08T10:35:17;26.30;;;14.97;;
8538;SDS011;4307;53.868;11.680;2024-03-08T10:37:46;27.07;;;15.00;;
8538;SDS011;4307;53.868;11.680;2024-03-08T10:40:17;25.70;;;14.93;;
8538;SDS011;4307;53.868;11.680;2024-03-08T10:42:47;30.73;;;16.27;;
8538;SDS011;4307;53.868;11.680;2024-03-08T10:45:20;26.03;;;14.80;;
8538;SDS011;4307;53.868;11.680;2024-03-08T10:47:58;24.90;;;14.67;;
8538;SDS011;4307;53.868;11.680;2024-03-08T10:50:47;24.23;;;14.40;;
8538;SDS011;4307;53.868;11.680;2024-03-08T10:53:15;25.77;;;13.47;;
8538;SDS011;4307;53.868;11.680;2024-03-08T10:55:47;26.07;;;13.50;;
8538;SDS011;4307;53.868;11.680;2024-03-08T10:58:18;25.40;;;14.07;;
8538;SDS011;4307;53.868;11.680;2024-03-08T11:00:46;24.83;;;15.00;;
8538;SDS011;4307;53.868;11.680;2024-03-08T11:06:13;22.70;;;13.27;;
8538;SDS011;4307;53.868;11.680;2024-03-08T11:08:41;27.40;;;14.53;;
8538;SDS011;4307;53.868;11.680;2024-03-08T11:11:22;26.43;;;15.13;;
8538;SDS011;4307;53.868;11.680;2024-03-08T11:13:52;27.87;;;14.50;;
8538;SDS011;4307;53.868;11.680;2024-03-08T11:19:06;26.57;;;15.90;;
8538;SDS011;4307;53.868;11.680;2024-03-08T11:21:56;22.97;;;14.80;;
8538;SDS011;4307;53.868;11.680;2024-03-08T11:24:27;23.90;;;14.00;;
8538;SDS011;4307;53.868;11.680;2024-03-08T11:27:04;22.13;;;13.83;;
8538;SDS011;4307;53.868;11.680;2024-03-08T11:29:35;22.20;;;13.90;;
8538;SDS011;4307;53.868;11.680;2024-03-08T11:32:04;24.00;;;13.93;;
8538;SDS011;4307;53.868;11.680;2024-03-08T11:34:33;24.33;;;13.90;;
8538;SDS011;4307;53.868;11.680;2024-03-08T11:37:00;24.17;;;13.33;;
8538;SDS011;4307;53.868;11.680;2024-03-08T11:39:29;24.80;;;15.10;;
8538;SDS011;4307;53.868;11.680;2024-03-08T11:41:56;25.53;;;14.97;;
8538;SDS011;4307;53.868;11.680;2024-03-08T11:44:27;22.67;;;13.37;;
8538;SDS011;4307;53.868;11.680;2024-03-08T11:46:54;26.00;;;15.00;;
8538;SDS011;4307;53.868;11.680;2024-03-08T11:49:20;21.13;;;11.77;;
8538;SDS011;4307;53.868;11.680;2024-03-08T11:51:50;17.77;;;9.77;;
8538;SDS011;4307;53.868;11.680;2024-03-08T11:54:18;20.97;;;13.47;;
8538;SDS011;4307;53.868;11.680;2024-03-08T11:56:45;25.53;;;15.67;;
8538;SDS011;4307;53.868;11.680;2024-03-08T11:59:12;19.47;;;10.53;;
8538;SDS011;4307;53.868;11.680;2024-03-08T12:01:41;27.53;;;15.53;;
8538;SDS011;4307;53.868;11.680;2024-03-08T12:04:11;23.13;;;14.37;;
8538;SDS011;4307;53.868;11.680;2024-03-08T12:06:39;23.80;;;11.97;;
8538;SDS011;4307;53.868;11.680;2024-03-08T12:09:07;23.03;;;14.17;;
8538;SDS011;4307;53.868;11.680;2024-03-08T12:11:35;10.83;;;7.33;;
8538;SDS011;4307;53.868;11.680;2024-03-08T12:14:02;21.13;;;11.40;;
8538;SDS011;4307;53.868;11.680;2024-03-08T12:16:28;19.03;;;11.63;;
8538;SDS011;4307;53.868;11.680;2024-03-08T12:18:57;23.57;;;13.17;;
8538;SDS011;4307;53.868;11.680;2024-03-08T12:21:25;29.07;;;14.63;;
8538;SDS011;4307;53.868;11.680;2024-03-08T12:26:41;21.60;;;12.17;;
8538;SDS011;4307;53.868;11.680;2024-03-08T12:29:15;18.37;;;9.10;;
8538;SDS011;4307;53.868;11.680;2024-03-08T12:31:45;22.33;;;12.77;;
8538;SDS011;4307;53.868;11.680;2024-03-08T12:34:13;21.40;;;12.43;;
8538;SDS011;4307;53.868;11.680;2024-03-08T12:36:46;22.63;;;10.77;;
8538;SDS011;4307;53.868;11.680;2024-03-08T12:39:15;22.40;;;12.93;;
8538;SDS011;4307;53.868;11.680;2024-03-08T12:41:42;20.73;;;12.13;;
8538;SDS011;4307;53.868;11.680;2024-03-08T12:44:09;22.23;;;13.27;;
8538;SDS011;4307;53.868;11.680;2024-03-08T12:46:37;22.87;;;12.93;;
8538;SDS011;4307;53.868;11.680;2024-03-08T12:49:07;22.73;;;10.23;;
8538;SDS011;4307;53.868;11.680;2024-03-08T12:51:35;21.33;;;12.97;;
8538;SDS011;4307;53.868;11.680;2024-03-08T12:54:04;22.67;;;12.67;;
8538;SDS011;4307;53.868;11.680;2024-03-08T12:56:32;16.53;;;10.57;;
8538;SDS011;4307;53.868;11.680;2024-03-08T12:59:00;22.90;;;12.70;;
8538;SDS011;4307;53.868;11.680;2024-03-08T13:01:27;22.27;;;12.50;;
8538;SDS011;4307;53.868;11.680;2024-03-08T13:03:55;18.53;;;10.80;;
8538;SDS011;4307;53.868;11.680;2024-03-08T13:06:21;21.10;;;12.47;;
8538;SDS011;4307;53.868;11.680;2024-03-08T13:08:50;21.47;;;12.60;;
8538;SDS011;4307;53.868;11.680;2024-03-08T13:11:18;21.37;;;12.67;;
8538;SDS011;4307;53.868;11.680;2024-03-08T13:13:45;22.57;;;13.23;;
8538;SDS011;4307;53.868;11.680;2024-03-08T13:16:12;24.00;;;13.07;;
8538;SDS011;4307;53.868;11.680;2024-03-08T13:18:40;13.80;;;6.47;;
8538;SDS011;4307;53.868;11.680;2024-03-08T13:21:08;22.20;;;9.73;;
8538;SDS011;4307;53.868;11.680;2024-03-08T13:23:35;17.70;;;11.23;;
8538;SDS011;4307;53.868;11.680;2024-03-08T13:26:06;24.23;;;12.57;;
8538;SDS011;4307;53.868;11.680;2024-03-08T13:28:33;20.07;;;12.67;;
8538;SDS011;4307;53.868;11.680;2024-03-08T13:31:03;19.07;;;10.57;;
8538;SDS011;4307;53.868;11.680;2024-03-08T13:33:31;19.57;;;12.67;;
8538;SDS011;4307;53.868;11.680;2024-03-08T13:36:00;15.57;;;9.07;;
8538;SDS011;4307;53.868;11.680;2024-03-08T13:38:29;20.73;;;8.83;;
8538;SDS011;4307;53.868;11.680;2024-03-08T13:40:57;23.23;;;12.03;;
8538;SDS011;4307;53.868;11.680;2024-03-08T13:43:25;24.50;;;11.90;;
8538;SDS011;4307;53.868;11.680;2024-03-08T13:45:54;20.93;;;12.47;;
8538;SDS011;4307;53.868;11.680;2024-03-08T13:48:21;21.33;;;12.90;;
8538;SDS011;4307;53.868;11.680;2024-03-08T13:50:47;18.07;;;10.93;;
8538;SDS011;4307;53.868;11.680;2024-03-08T13:53:14;20.00;;;13.13;;
8538;SDS011;4307;53.868;11.680;2024-03-08T13:55:41;16.50;;;10.50;;
8538;SDS011;4307;53.868;11.680;2024-03-08T13:58:08;15.63;;;9.10;;
8538;SDS011;4307;53.868;11.680;2024-03-08T14:00:36;20.87;;;11.30;;
8538;SDS011;4307;53.868;11.680;2024-03-08T14:03:03;18.13;;;11.93;;
8538;SDS011;4307;53.868;11.680;2024-03-08T14:05:31;21.17;;;12.80;;
8538;SDS011;4307;53.868;11.680;2024-03-08T14:07:59;14.30;;;8.83;;
8538;SDS011;4307;53.868;11.680;2024-03-08T14:10:28;22.20;;;11.80;;
8538;SDS011;4307;53.868;11.680;2024-03-08T14:12:56;12.97;;;7.60;;
8538;SDS011;4307;53.868;11.680;2024-03-08T14:15:23;18.33;;;11.17;;
8538;SDS011;4307;53.868;11.680;2024-03-08T14:17:54;20.83;;;10.93;;
8538;SDS011;4307;53.868;11.680;2024-03-08T14:20:22;19.10;;;11.77;;
8538;SDS011;4307;53.868;11.680;2024-03-08T14:22:50;21.00;;;12.77;;
8538;SDS011;4307;53.868;11.680;2024-03-08T14:25:17;14.23;;;8.60;;
8538;SDS011;4307;53.868;11.680;2024-03-08T14:27:44;17.27;;;11.40;;
8538;SDS011;4307;53.868;11.680;2024-03-08T14:30:11;14.80;;;8.07;;
8538;SDS011;4307;53.868;11.680;2024-03-08T14:32:38;19.47;;;11.10;;
8538;SDS011;4307;53.868;11.680;2024-03-08T14:35:08;19.23;;;11.33;;
8538;SDS011;4307;53.868;11.680;2024-03-08T14:37:36;22.67;;;12.53;;
8538;SDS011;4307;53.868;11.680;2024-03-08T14:40:03;16.33;;;8.40;;
8538;SDS011;4307;53.868;11.680;2024-03-08T14:42:31;11.97;;;7.87;;
8538;SDS011;4307;53.868;11.680;2024-03-08T14:44:57;21.30;;;12.53;;
8538;SDS011;4307;53.868;11.680;2024-03-08T14:47:25;17.60;;;11.33;;
8538;SDS011;4307;53.868;11.680;2024-03-08T14:49:51;9.47;;;6.10;;
8538;SDS011;4307;53.868;11.680;2024-03-08T14:52:21;14.60;;;8.40;;